Time;durP1;ratioP1;P1;durP2;ratioP2;P2;SDS_P1;SDS_P2;PMS_P1;PMS_P2;Temp;Humidity;BMP_temperature;BMP_pressure;BME280_temperature;BME280_humidity;BME280_pressure;Samples;Min_cycle;Max_cycle;Signal;HPM_P1;HPM_P2
2023/03/15 00:00:28;;;;;;;8.60;3.33;;;5.30;80.20;;;;;;5026075;28;20038;-64
2023/03/15 00:03:03;;;;;;;10.73;2.88;;;5.20;80.30;;;;;;5014692;28;20041;-62
2023/03/15 00:05:37;;;;;;;10.07;2.90;;;5.30;79.60;;;;;;5011834;28;20049;-58
2023/03/15 00:08:11;;;;;;;6.93;2.08;;;5.20;79.80;;;;;;5016029;28;20057;-59
2023/03/15 00:10:47;;;;;;;9.77;2.55;;;5.20;79.90;;;;;;5018516;28;20500;-63
2023/03/15 00:13:20;;;;;;;6.25;2.10;;;5.20;79.70;;;;;;5014116;28;20134;-63
2023/03/15 00:15:57;;;;;;;9.38;2.10;;;5.20;79.40;;;;;;5017249;28;20046;-59
2023/03/15 00:18:31;;;;;;;6.07;1.52;;;5.20;79.40;;;;;;5015814;28;20041;-60
2023/03/15 00:21:05;;;;;;;8.45;1.42;;;5.10;79.70;;;;;;5015689;28;20052;-72
2023/03/15 00:23:38;;;;;;;6.68;1.30;;;4.90;80.40;;;;;;5016860;28;20053;-72
2023/03/15 00:26:13;;;;;;;5.60;1.55;;;4.80;81.30;;;;;;5018871;28;20045;-63
2023/03/15 00:28:46;;;;;;;4.40;1.50;;;4.80;82.00;;;;;;5015830;28;20053;-63
2023/03/15 00:31:21;;;;;;;5.75;1.98;;;4.70;82.50;;;;;;5016495;28;20118;-62
2023/03/15 00:33:54;;;;;;;7.78;1.73;;;4.60;83.10;;;;;;4999734;28;20050;-63
2023/03/15 00:36:34;;;;;;;4.45;1.80;;;4.50;83.50;;;;;;5017535;28;20060;-64
2023/03/15 00:39:08;;;;;;;7.82;1.90;;;4.40;83.70;;;;;;5017452;28;20387;-58
2023/03/15 00:41:50;;;;;;;4.45;1.73;;;4.40;84.00;;;;;;5014262;28;20568;-59
2023/03/15 00:44:25;;;;;;;4.78;1.50;;;4.40;84.10;;;;;;5017346;28;20052;-62
2023/03/15 00:46:58;;;;;;;6.68;1.80;;;4.30;84.10;;;;;;5016012;28;20057;-63
2023/03/15 00:49:32;;;;;;;6.47;2.30;;;4.30;84.10;;;;;;5019008;28;20132;-59
2023/03/15 00:52:07;;;;;;;9.05;1.75;;;4.30;84.20;;;;;;5014962;28;20116;-59
2023/03/15 00:54:42;;;;;;;6.95;1.90;;;4.20;84.30;;;;;;5018785;28;20041;-70
2023/03/15 00:57:17;;;;;;;6.57;1.80;;;4.20;84.30;;;;;;5017688;28;20121;-71
2023/03/15 00:59:51;;;;;;;7.13;1.67;;;4.20;84.30;;;;;;5016122;28;20112;-59
2023/03/15 01:02:24;;;;;;;6.40;1.80;;;4.10;84.10;;;;;;5016995;28;20061;-59
2023/03/15 01:04:57;;;;;;;6.75;2.10;;;4.00;84.10;;;;;;5017611;28;20136;-61
2023/03/15 01:07:32;;;;;;;8.90;2.00;;;4.00;84.30;;;;;;5008501;28;20044;-61
2023/03/15 01:10:07;;;;;;;8.55;1.88;;;4.00;84.30;;;;;;5017425;28;20037;-63
2023/03/15 01:12:42;;;;;;;6.68;2.20;;;3.90;84.30;;;;;;5017721;28;20433;-63
2023/03/15 01:15:16;;;;;;;7.15;2.72;;;3.90;84.30;;;;;;5010421;28;20100;-63
2023/03/15 01:17:49;;;;;;;9.98;2.53;;;3.90;84.30;;;;;;4998013;28;20050;-62
2023/03/15 01:20:24;;;;;;;9.95;2.38;;;3.90;84.10;;;;;;4998862;28;20037;-63
2023/03/15 01:22:57;;;;;;;7.00;2.63;;;3.90;84.20;;;;;;5035842;28;20048;-62
2023/03/15 01:25:30;;;;;;;11.60;3.55;;;3.80;84.20;;;;;;5034389;28;20094;-62
2023/03/15 01:28:05;;;;;;;10.15;2.80;;;3.80;84.30;;;;;;5018390;28;20549;-63
2023/03/15 01:30:39;;;;;;;9.07;2.50;;;3.70;84.30;;;;;;5018578;28;20041;-62
2023/03/15 01:33:12;;;;;;;8.90;2.70;;;3.70;84.40;;;;;;5034002;28;20049;-62
2023/03/15 01:35:58;;;;;;;6.25;1.92;;;3.70;84.20;;;;;;5018667;28;20038;-62
2023/03/15 01:38:33;;;;;;;7.28;2.40;;;3.70;84.30;;;;;;5027076;28;20523;-63
2023/03/15 01:41:07;;;;;;;7.15;1.90;;;3.60;84.10;;;;;;5017265;28;20072;-67
2023/03/15 01:43:45;;;;;;;6.47;2.22;;;3.60;84.10;;;;;;5007151;28;20058;-68
2023/03/15 01:46:26;;;;;;;10.07;2.40;;;3.50;84.30;;;;;;5034294;28;20045;-68
2023/03/15 01:49:13;;;;;;;6.55;2.10;;;3.60;84.20;;;;;;4998860;28;20467;-66
2023/03/15 01:51:51;;;;;;;4.97;1.90;;;3.60;84.20;;;;;;5029087;28;20050;-67
2023/03/15 01:54:29;;;;;;;6.38;2.10;;;3.60;83.80;;;;;;5014083;28;20056;-67
2023/03/15 01:57:08;;;;;;;6.35;1.77;;;3.50;84.20;;;;;;4996779;28;20057;-67
2023/03/15 01:59:46;;;;;;;7.47;1.80;;;3.50;84.10;;;;;;5011623;28;21279;-60
2023/03/15 02:02:23;;;;;;;9.43;2.33;;;3.50;84.20;;;;;;4994821;28;20061;-60
2023/03/15 02:04:59;;;;;;;5.30;1.98;;;3.50;84.10;;;;;;5026869;28;20049;-59
2023/03/15 02:07:33;;;;;;;5.13;1.70;;;3.40;84.10;;;;;;5026024;28;20700;-61
2023/03/15 02:10:10;;;;;;;5.97;2.00;;;3.40;84.10;;;;;;5034347;28;20675;-63
2023/03/15 02:12:48;;;;;;;6.88;1.95;;;3.50;84.10;;;;;;5027298;28;20145;-63
2023/03/15 02:15:23;;;;;;;3.47;1.48;;;3.40;83.90;;;;;;5026458;28;20121;-62
2023/03/15 02:17:58;;;;;;;7.05;1.88;;;3.30;84.00;;;;;;5016211;28;20051;-63
2023/03/15 02:20:40;;;;;;;7.00;1.50;;;3.30;84.10;;;;;;5023289;28;20045;-67
2023/03/15 02:23:17;;;;;;;8.23;2.22;;;3.20;84.20;;;;;;5034411;28;20043;-68
2023/03/15 02:26:03;;;;;;;6.50;1.90;;;3.30;84.30;;;;;;5025504;28;20060;-61
2023/03/15 02:28:38;;;;;;;5.03;1.70;;;3.20;84.20;;;;;;5009608;28;20511;-59
2023/03/15 02:31:13;;;;;;;8.90;1.70;;;3.20;84.40;;;;;;5025676;28;20095;-62
2023/03/15 02:33:51;;;;;;;5.45;1.63;;;3.10;84.50;;;;;;5032739;28;20123;-63
2023/03/15 02:36:32;;;;;;;7.25;1.80;;;3.20;84.50;;;;;;5015611;28;20049;-63
2023/03/15 02:39:17;;;;;;;6.68;1.70;;;3.10;84.40;;;;;;5031341;28;20049;-58
2023/03/15 02:41:53;;;;;;;6.80;2.10;;;3.10;84.40;;;;;;5033107;28;20065;-60
2023/03/15 02:44:33;;;;;;;5.97;1.80;;;3.10;84.50;;;;;;5012974;28;20037;-63
2023/03/15 02:47:10;;;;;;;9.73;2.13;;;3.10;84.50;;;;;;5034649;28;20488;-62
2023/03/15 02:49:49;;;;;;;4.80;1.60;;;3.10;84.50;;;;;;5008333;28;20357;-59
2023/03/15 02:52:22;;;;;;;7.50;2.55;;;3.10;84.40;;;;;;5014855;28;20041;-59
2023/03/15 02:54:55;;;;;;;7.72;1.98;;;3.10;84.40;;;;;;5033586;28;20520;-71
2023/03/15 02:57:29;;;;;;;7.45;2.33;;;3.10;84.40;;;;;;5025849;28;20041;-72
2023/03/15 03:00:12;;;;;;;5.68;1.90;;;3.10;84.30;;;;;;5017092;28;20052;-62
2023/03/15 03:02:47;;;;;;;7.57;2.13;;;3.10;84.30;;;;;;5031947;28;20057;-62
2023/03/15 03:05:21;;;;;;;5.80;2.13;;;3.10;84.50;;;;;;5032308;28;20053;-61
2023/03/15 03:07:54;;;;;;;5.50;2.28;;;3.10;84.70;;;;;;5034692;28;20068;-61
2023/03/15 03:10:34;;;;;;;7.40;2.53;;;3.10;84.70;;;;;;5033189;28;20132;-60
2023/03/15 03:13:07;;;;;;;5.45;2.42;;;3.10;84.80;;;;;;5033400;28;20480;-61
2023/03/15 03:15:44;;;;;;;6.07;2.35;;;3.00;84.90;;;;;;5010415;28;20139;-61
2023/03/15 03:18:17;;;;;;;5.00;2.38;;;3.00;85.00;;;;;;5004204;28;20144;-62
2023/03/15 03:20:51;;;;;;;6.10;2.42;;;3.00;85.10;;;;;;5033577;28;20087;-61
2023/03/15 03:23:25;;;;;;;7.00;2.53;;;3.00;85.20;;;;;;5033426;28;20048;-61
2023/03/15 03:25:59;;;;;;;10.07;2.53;;;3.00;85.30;;;;;;5010543;28;20098;-62
2023/03/15 03:28:33;;;;;;;5.63;2.13;;;3.00;85.20;;;;;;5033497;28;20056;-61
2023/03/15 03:31:07;;;;;;;11.18;2.58;;;3.00;85.20;;;;;;5031825;28;20045;-61
2023/03/15 03:33:41;;;;;;;12.90;4.80;;;3.00;85.30;;;;;;5015209;28;20692;-61
2023/03/15 03:36:21;;;;;;;13.18;4.93;;;3.00;85.30;;;;;;5015770;28;20041;-62
2023/03/15 03:38:55;;;;;;;11.23;4.28;;;3.00;85.40;;;;;;5012274;28;20054;-61
2023/03/15 03:41:28;;;;;;;9.98;3.50;;;3.00;85.20;;;;;;5017440;28;20045;-62
2023/03/15 03:44:02;;;;;;;9.60;2.72;;;3.10;85.20;;;;;;5007759;28;20124;-60
2023/03/15 03:46:36;;;;;;;6.35;2.28;;;3.10;85.10;;;;;;5013208;28;20077;-62
2023/03/15 03:49:10;;;;;;;8.63;2.10;;;3.10;84.90;;;;;;5030702;28;20105;-61
2023/03/15 03:51:43;;;;;;;5.60;1.95;;;3.20;84.80;;;;;;5032027;28;20059;-62
2023/03/15 03:54:16;;;;;;;7.60;2.08;;;3.20;84.80;;;;;;5013357;28;20488;-60
2023/03/15 03:56:49;;;;;;;9.27;1.80;;;3.20;84.70;;;;;;4986112;28;20548;-62
2023/03/15 03:59:25;;;;;;;6.75;1.65;;;3.20;84.70;;;;;;4984194;28;20061;-58
2023/03/15 04:02:05;;;;;;;5.10;1.60;;;3.20;84.80;;;;;;5032982;28;20065;-58
2023/03/15 04:04:43;;;;;;;5.15;1.48;;;3.20;84.60;;;;;;5024734;28;20049;-59
2023/03/15 04:07:18;;;;;;;5.28;1.70;;;3.20;84.50;;;;;;5025290;28;20416;-60
2023/03/15 04:09:52;;;;;;;6.60;1.70;;;3.10;84.70;;;;;;5011521;28;20134;-61
2023/03/15 04:12:26;;;;;;;4.70;2.08;;;3.10;84.80;;;;;;4987733;28;20481;-60
2023/03/15 04:15:00;;;;;;;7.43;2.10;;;3.10;84.90;;;;;;5012150;28;20053;-60
2023/03/15 04:17:35;;;;;;;4.70;1.25;;;3.20;84.70;;;;;;4992914;28;20050;-62
2023/03/15 04:20:10;;;;;;;4.60;1.13;;;3.20;84.60;;;;;;4996414;28;20037;-60
2023/03/15 04:22:48;;;;;;;5.88;1.55;;;3.20;84.70;;;;;;5008838;28;20055;-60
2023/03/15 04:25:57;;;;;;;6.88;1.27;;;3.20;84.60;;;;;;4969241;28;20141;-61
2023/03/15 04:28:54;;;;;;;7.75;1.35;;;3.20;84.50;;;;;;5013758;28;20052;-61
2023/03/15 04:31:44;;;;;;;4.97;1.52;;;3.20;84.40;;;;;;5031572;28;20132;-60
2023/03/15 04:34:29;;;;;;;7.10;1.70;;;3.20;84.30;;;;;;5029904;28;20560;-61
2023/03/15 04:37:30;;;;;;;5.18;1.27;;;3.20;84.30;;;;;;5023594;28;20091;-60
2023/03/15 04:40:41;;;;;;;5.40;1.55;;;3.20;84.20;;;;;;4963454;28;20047;-61
2023/03/15 04:43:41;;;;;;;5.82;1.17;;;3.20;84.20;;;;;;5003081;28;20042;-61
2023/03/15 04:46:33;;;;;;;7.35;1.50;;;3.20;84.00;;;;;;5032997;28;20110;-60
2023/03/15 04:49:19;;;;;;;5.35;1.20;;;3.30;83.90;;;;;;5014967;28;20049;-59
2023/03/15 04:52:00;;;;;;;5.05;1.17;;;3.30;83.90;;;;;;5010207;28;20496;-59
2023/03/15 04:54:50;;;;;;;7.45;1.40;;;3.30;83.90;;;;;;5008041;28;20049;-61
2023/03/15 04:57:30;;;;;;;6.32;1.58;;;3.20;84.00;;;;;;5035935;28;20057;-60
2023/03/15 05:00:14;;;;;;;5.78;1.15;;;3.30;84.00;;;;;;5031431;28;20041;-61
2023/03/15 05:03:20;;;;;;;6.40;1.30;;;3.20;84.10;;;;;;4982237;28;20511;-60
2023/03/15 05:06:06;;;;;;;5.85;1.30;;;3.20;84.10;;;;;;5015758;28;20693;-59
2023/03/15 05:08:47;;;;;;;3.88;1.27;;;3.20;84.10;;;;;;5036498;28;20430;-60
2023/03/15 05:11:39;;;;;;;5.43;1.48;;;3.20;83.90;;;;;;5032737;28;20107;-63
2023/03/15 05:14:34;;;;;;;6.97;1.38;;;3.30;83.90;;;;;;5017489;28;20212;-63
2023/03/15 05:17:15;;;;;;;6.25;1.40;;;3.20;83.80;;;;;;5037232;28;20061;-62
2023/03/15 05:20:12;;;;;;;8.10;1.88;;;3.30;83.90;;;;;;5036872;28;20049;-63
2023/03/15 05:23:03;;;;;;;5.90;1.58;;;3.30;83.70;;;;;;5035248;28;20057;-63
2023/03/15 05:25:54;;;;;;;7.28;1.52;;;3.30;83.60;;;;;;5035146;28;20543;-61
2023/03/15 05:29:00;;;;;;;5.00;1.52;;;3.20;83.80;;;;;;4971178;28;20045;-60
2023/03/15 05:32:04;;;;;;;5.75;1.40;;;3.20;83.70;;;;;;4966629;28;20055;-60
2023/03/15 05:34:57;;;;;;;9.90;1.73;;;3.20;84.00;;;;;;5030639;28;20061;-62
2023/03/15 05:38:13;;;;;;;5.28;1.25;;;3.20;84.10;;;;;;4938012;29;20451;-61
2023/03/15 05:41:23;;;;;;;12.07;1.42;;;3.20;84.00;;;;;;4994468;28;20104;-62
2023/03/15 05:44:07;;;;;;;4.28;1.25;;;3.20;84.00;;;;;;4996379;28;20041;-58
2023/03/15 05:46:56;;;;;;;7.25;1.20;;;3.30;83.80;;;;;;5028443;28;20077;-59
2023/03/15 05:49:51;;;;;;;6.30;1.85;;;3.30;83.60;;;;;;4981092;28;20135;-61
2023/03/15 05:52:50;;;;;;;8.10;1.35;;;3.30;83.60;;;;;;4976750;28;20136;-62
2023/03/15 05:55:46;;;;;;;4.50;1.13;;;3.20;83.90;;;;;;4999444;28;20508;-66
2023/03/15 05:58:40;;;;;;;7.85;1.55;;;3.20;83.80;;;;;;5012580;28;20107;-66
2023/03/15 06:01:13;;;;;;;5.20;1.45;;;3.20;83.90;;;;;;5016910;28;20521;-60
2023/03/15 06:04:06;;;;;;;5.10;1.20;;;3.20;83.90;;;;;;5013553;28;20049;-62
2023/03/15 06:06:40;;;;;;;6.80;1.48;;;3.20;84.00;;;;;;4996017;28;20056;-61
2023/03/15 06:09:14;;;;;;;6.43;1.27;;;3.20;84.30;;;;;;5011812;28;20052;-62
2023/03/15 06:11:48;;;;;;;6.18;1.58;;;3.30;84.10;;;;;;5016878;28;20041;-61
2023/03/15 06:14:22;;;;;;;3.50;1.02;;;3.20;83.90;;;;;;5027169;28;20049;-63
2023/03/15 06:16:59;;;;;;;5.97;1.58;;;3.20;83.80;;;;;;5003611;28;20050;-63
2023/03/15 06:19:33;;;;;;;4.05;1.38;;;3.30;83.90;;;;;;5034451;28;20095;-66
2023/03/15 06:22:06;;;;;;;6.60;1.38;;;3.20;84.10;;;;;;5031958;28;20046;-68
2023/03/15 06:24:47;;;;;;;6.05;1.38;;;3.20;84.30;;;;;;5023902;28;20547;-62
2023/03/15 06:27:23;;;;;;;7.70;1.60;;;3.20;84.60;;;;;;5012930;28;20054;-60
2023/03/15 06:29:59;;;;;;;5.15;1.50;;;3.10;84.70;;;;;;4994966;28;20084;-60
2023/03/15 06:32:33;;;;;;;8.23;2.08;;;3.10;84.90;;;;;;5012505;28;20133;-61
2023/03/15 06:35:07;;;;;;;9.27;2.38;;;3.10;85.20;;;;;;5000943;28;20045;-70
2023/03/15 06:37:41;;;;;;;6.13;1.90;;;3.00;85.40;;;;;;5015454;28;20475;-70
2023/03/15 06:40:16;;;;;;;6.13;1.70;;;3.00;85.50;;;;;;5014809;28;20512;-62
2023/03/15 06:42:49;;;;;;;6.15;1.73;;;3.10;85.50;;;;;;5012583;28;20068;-63
2023/03/15 06:45:24;;;;;;;5.70;1.65;;;3.10;85.60;;;;;;5011664;28;20433;-62
2023/03/15 06:47:58;;;;;;;8.55;1.65;;;3.00;85.70;;;;;;5015197;28;20052;-62
2023/03/15 06:50:32;;;;;;;10.48;1.70;;;2.90;85.80;;;;;;5017810;28;20144;-61
2023/03/15 06:53:05;;;;;;;8.13;2.25;;;2.90;85.80;;;;;;5033512;28;20128;-60
2023/03/15 06:55:38;;;;;;;6.53;2.42;;;2.90;86.10;;;;;;5031564;28;20500;-71
2023/03/15 06:58:11;;;;;;;5.20;1.73;;;2.90;86.10;;;;;;5029595;28;20472;-71
2023/03/15 07:00:47;;;;;;;6.15;1.73;;;2.90;86.10;;;;;;5027612;28;20073;-59
2023/03/15 07:03:22;;;;;;;5.55;1.80;;;2.90;86.20;;;;;;5030521;28;20486;-60
2023/03/15 07:05:56;;;;;;;4.55;1.58;;;2.90;86.20;;;;;;5026838;28;20099;-67
2023/03/15 07:08:29;;;;;;;4.90;1.33;;;2.80;86.40;;;;;;5010654;28;20483;-66
2023/03/15 07:11:03;;;;;;;3.00;1.20;;;2.90;86.40;;;;;;5005020;28;20054;-67
2023/03/15 07:13:37;;;;;;;4.18;1.30;;;2.90;86.50;;;;;;5011044;28;20061;-67
2023/03/15 07:16:11;;;;;;;4.57;1.55;;;2.90;86.50;;;;;;4999614;28;20042;-62
2023/03/15 07:18:45;;;;;;;4.80;1.80;;;2.90;86.60;;;;;;5011252;28;20136;-64
2023/03/15 07:21:18;;;;;;;5.20;1.65;;;2.90;86.10;;;;;;5009479;28;20132;-64
2023/03/15 07:23:51;;;;;;;7.00;2.17;;;2.90;86.10;;;;;;5012581;28;20476;-64
2023/03/15 07:26:30;;;;;;;6.05;1.63;;;2.90;86.10;;;;;;5010429;28;20055;-59
2023/03/15 07:29:04;;;;;;;4.00;1.27;;;3.00;86.00;;;;;;5009895;28;20045;-59
2023/03/15 07:31:38;;;;;;;5.28;1.50;;;3.00;86.20;;;;;;5010552;28;20073;-60
2023/03/15 07:34:12;;;;;;;3.58;1.73;;;2.90;86.10;;;;;;5009515;28;24933;-64
2023/03/15 07:36:51;;;;;;;5.40;2.17;;;2.90;86.20;;;;;;5007791;28;20037;-63
2023/03/15 07:39:32;;;;;;;6.75;2.42;;;3.00;86.10;;;;;;5006072;28;20053;-62
2023/03/15 07:42:06;;;;;;;7.20;1.90;;;2.90;86.20;;;;;;5014880;28;20183;-62
2023/03/15 07:44:41;;;;;;;4.03;1.83;;;3.00;86.10;;;;;;5028936;28;20460;-60
2023/03/15 07:47:16;;;;;;;8.02;1.90;;;3.00;86.10;;;;;;5033725;28;20059;-58
2023/03/15 07:49:50;;;;;;;4.32;1.75;;;2.90;86.30;;;;;;5012313;28;20061;-70
2023/03/15 07:52:23;;;;;;;6.10;1.70;;;2.90;86.30;;;;;;5012304;28;20062;-70
2023/03/15 07:54:49;;;;;;;3.45;1.73;;;3.00;86.20;;;;;;5013416;28;20050;-62
2023/03/15 07:57:23;;;;;;;6.55;1.98;;;3.00;85.90;;;;;;5015600;28;20050;-62
2023/03/15 07:59:57;;;;;;;6.28;1.77;;;3.00;86.00;;;;;;5014860;28;20251;-61
2023/03/15 08:02:40;;;;;;;9.85;1.92;;;3.00;86.20;;;;;;5014190;28;20053;-60
2023/03/15 08:05:14;;;;;;;5.57;1.90;;;3.00;86.10;;;;;;5012596;28;20042;-69
2023/03/15 08:07:49;;;;;;;5.22;1.77;;;3.00;86.20;;;;;;5013388;28;20038;-70
2023/03/15 08:10:22;;;;;;;4.95;1.92;;;3.00;86.10;;;;;;5013988;28;20042;-70
2023/03/15 08:12:55;;;;;;;6.07;1.85;;;3.10;86.00;;;;;;5011971;28;20050;-70
2023/03/15 08:15:28;;;;;;;6.32;1.90;;;3.00;86.20;;;;;;5007320;28;20141;-61
2023/03/15 08:18:02;;;;;;;8.48;1.70;;;3.00;86.00;;;;;;5001196;28;20550;-61
2023/03/15 08:20:36;;;;;;;7.00;2.20;;;3.00;85.80;;;;;;5033293;28;20049;-64
2023/03/15 08:23:15;;;;;;;7.47;2.20;;;3.10;85.80;;;;;;5033949;28;20107;-63
2023/03/15 08:25:48;;;;;;;5.47;2.50;;;3.00;86.00;;;;;;5031605;28;20049;-60
2023/03/15 08:28:16;;;;;;;11.90;2.50;;;3.10;85.90;;;;;;5028665;28;20052;-61
2023/03/15 08:30:50;;;;;;;7.22;2.72;;;3.10;85.60;;;;;;5015223;28;20062;-66
2023/03/15 08:33:24;;;;;;;7.00;2.88;;;3.10;85.70;;;;;;5015276;28;20504;-65
2023/03/15 08:36:05;;;;;;;6.20;2.70;;;3.10;86.00;;;;;;5012499;28;20049;-64
2023/03/15 08:38:39;;;;;;;6.72;2.65;;;3.10;85.80;;;;;;5034429;28;20060;-65
2023/03/15 08:41:12;;;;;;;9.68;3.45;;;3.10;85.80;;;;;;5036466;28;20408;-69
2023/03/15 08:43:45;;;;;;;7.22;2.63;;;3.10;86.00;;;;;;5016921;28;20100;-70
2023/03/15 08:46:20;;;;;;;8.70;2.55;;;3.20;85.80;;;;;;5013065;28;20049;-58
2023/03/15 08:48:55;;;;;;;9.73;2.65;;;3.20;85.60;;;;;;5017670;28;20112;-59
2023/03/15 08:51:29;;;;;;;8.13;3.13;;;3.20;85.80;;;;;;5017928;28;20052;-58
2023/03/15 08:54:04;;;;;;;9.80;3.80;;;3.20;85.60;;;;;;5017454;28;20083;-59
2023/03/15 08:56:37;;;;;;;9.27;3.22;;;3.20;86.10;;;;;;5017948;28;20135;-59
2023/03/15 08:59:10;;;;;;;7.65;3.38;;;3.20;86.30;;;;;;5017218;28;20104;-61
2023/03/15 09:01:44;;;;;;;6.70;2.80;;;3.20;86.20;;;;;;5016111;28;20041;-61
2023/03/15 09:04:26;;;;;;;7.25;2.50;;;3.30;86.00;;;;;;5016357;28;20070;-61
2023/03/15 09:07:00;;;;;;;7.47;3.00;;;3.30;86.20;;;;;;5015206;28;20541;-59
2023/03/15 09:09:34;;;;;;;6.93;3.05;;;3.30;86.30;;;;;;5016034;28;20104;-60
2023/03/15 09:12:07;;;;;;;7.38;2.65;;;3.30;86.10;;;;;;5015005;28;20503;-69
2023/03/15 09:14:41;;;;;;;6.97;3.00;;;3.30;85.80;;;;;;5015586;28;20919;-69
2023/03/15 09:17:14;;;;;;;7.72;2.60;;;3.40;86.20;;;;;;5007842;28;20064;-61
2023/03/15 09:19:48;;;;;;;8.80;2.97;;;3.40;85.90;;;;;;5011229;28;20128;-61
2023/03/15 09:22:22;;;;;;;7.32;2.80;;;3.40;86.00;;;;;;5016767;28;20491;-63
2023/03/15 09:24:56;;;;;;;8.45;3.05;;;3.30;85.90;;;;;;5012668;28;20054;-63
2023/03/15 09:27:30;;;;;;;8.05;3.00;;;3.30;86.30;;;;;;5013528;28;20931;-63
2023/03/15 09:30:05;;;;;;;7.18;3.35;;;3.30;86.20;;;;;;5008668;28;20068;-64
2023/03/15 09:32:38;;;;;;;9.82;3.78;;;3.30;86.40;;;;;;5013462;28;20049;-63
2023/03/15 09:35:14;;;;;;;9.77;3.97;;;3.40;86.00;;;;;;5016123;28;20083;-65
2023/03/15 09:37:49;;;;;;;7.65;3.60;;;3.40;86.30;;;;;;5014767;28;20468;-67
2023/03/15 09:40:26;;;;;;;8.82;3.30;;;3.40;86.40;;;;;;5012340;28;20058;-62
2023/03/15 09:43:04;;;;;;;8.20;3.72;;;3.50;86.20;;;;;;5014675;28;20570;-62
2023/03/15 09:45:51;;;;;;;9.80;3.42;;;3.50;86.40;;;;;;5015160;28;20108;-62
2023/03/15 09:48:31;;;;;;;10.48;3.40;;;3.50;86.30;;;;;;5032350;28;20424;-61
2023/03/15 09:51:13;;;;;;;7.85;3.90;;;3.60;86.30;;;;;;5025510;28;20060;-65
2023/03/15 09:53:54;;;;;;;7.03;3.65;;;3.60;86.40;;;;;;5030429;28;20049;-64
2023/03/15 09:56:29;;;;;;;8.55;4.03;;;3.70;86.40;;;;;;5029222;28;20041;-71
2023/03/15 09:59:04;;;;;;;10.82;3.78;;;3.70;85.90;;;;;;5008637;28;20132;-71
2023/03/15 10:01:39;;;;;;;11.63;4.38;;;3.70;85.80;;;;;;5010799;28;20499;-66
2023/03/15 10:04:24;;;;;;;7.78;3.78;;;3.80;86.00;;;;;;5005006;28;20122;-67
2023/03/15 10:07:01;;;;;;;7.10;3.72;;;3.80;86.10;;;;;;5007927;28;20050;-62
2023/03/15 10:09:35;;;;;;;10.57;4.18;;;3.80;85.50;;;;;;5011582;28;20045;-62
2023/03/15 10:12:12;;;;;;;11.65;4.30;;;3.80;85.80;;;;;;5008264;28;20600;-68
2023/03/15 10:15:03;;;;;;;11.95;4.20;;;3.90;86.20;;;;;;5013652;28;20443;-70
2023/03/15 10:17:43;;;;;;;7.78;4.05;;;4.00;86.10;;;;;;5008401;28;20140;-69
2023/03/15 10:20:20;;;;;;;18.98;4.63;;;4.10;85.40;;;;;;5011927;28;20068;-62
2023/03/15 10:22:59;;;;;;;11.32;4.72;;;4.10;85.70;;;;;;5009000;28;20132;-60
2023/03/15 10:25:34;;;;;;;9.68;4.55;;;4.20;86.40;;;;;;5027416;28;20083;-59
2023/03/15 10:28:12;;;;;;;9.25;4.25;;;4.20;85.50;;;;;;5023323;28;20072;-60
2023/03/15 10:30:48;;;;;;;11.13;5.07;;;4.20;86.10;;;;;;5019146;28;20056;-60
2023/03/15 10:33:27;;;;;;;10.15;4.63;;;4.30;86.00;;;;;;5027946;28;20047;-60
2023/03/15 10:36:10;;;;;;;11.73;4.50;;;4.30;86.10;;;;;;5017902;28;20058;-61
2023/03/15 10:38:51;;;;;;;12.50;4.80;;;4.40;85.70;;;;;;5012070;28;20052;-61
2023/03/15 10:41:30;;;;;;;10.73;4.63;;;4.40;85.50;;;;;;5012931;28;20049;-61
2023/03/15 10:44:06;;;;;;;9.48;4.65;;;4.60;86.00;;;;;;5007259;28;20441;-60
2023/03/15 10:46:40;;;;;;;17.45;5.10;;;4.70;86.30;;;;;;5012777;28;20052;-62
2023/03/15 10:49:15;;;;;;;10.02;4.85;;;4.70;85.60;;;;;;5014584;28;20052;-60
2023/03/15 10:51:49;;;;;;;9.82;4.50;;;4.70;85.60;;;;;;5016276;28;20463;-65
2023/03/15 10:54:24;;;;;;;9.05;4.63;;;5.00;86.30;;;;;;5015233;28;20438;-66
2023/03/15 10:57:00;;;;;;;10.25;4.65;;;5.00;85.40;;;;;;5014398;28;20059;-60
2023/03/15 10:59:35;;;;;;;8.18;4.65;;;5.00;86.00;;;;;;5013637;28;20057;-60
2023/03/15 11:02:21;;;;;;;8.23;4.00;;;5.10;85.70;;;;;;5010128;28;20053;-61
2023/03/15 11:05:02;;;;;;;13.10;4.38;;;5.10;85.20;;;;;;5008077;28;20049;-62
2023/03/15 11:07:36;;;;;;;9.55;3.97;;;5.10;85.70;;;;;;5011640;28;20057;-62
2023/03/15 11:10:24;;;;;;;10.25;3.78;;;5.10;85.50;;;;;;5012820;28;20526;-62
2023/03/15 11:13:11;;;;;;;9.45;3.50;;;5.20;85.60;;;;;;5014754;28;20053;-63
2023/03/15 11:15:52;;;;;;;7.20;4.00;;;5.30;85.20;;;;;;5006691;28;20037;-65
2023/03/15 11:18:29;;;;;;;7.75;3.42;;;5.30;85.10;;;;;;5011794;28;20099;-66
2023/03/15 11:21:08;;;;;;;8.82;4.00;;;5.40;85.10;;;;;;5013888;28;20550;-63
2023/03/15 11:23:59;;;;;;;10.73;3.50;;;5.50;84.90;;;;;;5034356;28;20056;-63
2023/03/15 11:26:44;;;;;;;6.30;3.30;;;5.90;84.30;;;;;;5028545;28;20041;-70
2023/03/15 11:29:22;;;;;;;7.28;3.75;;;6.20;83.80;;;;;;5029307;28;20045;-69
2023/03/15 11:31:56;;;;;;;6.15;3.00;;;6.50;83.90;;;;;;5010776;28;20136;-58
2023/03/15 11:34:40;;;;;;;7.90;3.10;;;6.60;83.50;;;;;;5011601;28;20049;-58
2023/03/15 11:37:25;;;;;;;9.40;3.00;;;6.70;83.30;;;;;;5013640;28;20034;-59
2023/03/15 11:40:03;;;;;;;6.43;2.80;;;6.70;83.00;;;;;;5009238;28;20076;-58
2023/03/15 11:42:46;;;;;;;8.57;3.58;;;6.70;83.00;;;;;;5007761;28;20056;-58
2023/03/15 11:45:28;;;;;;;8.45;3.53;;;6.70;82.80;;;;;;5008167;28;20143;-58
2023/03/15 11:48:26;;;;;;;8.07;3.08;;;6.70;83.00;;;;;;5009324;28;20127;-57
2023/03/15 11:51:01;;;;;;;5.10;2.70;;;6.70;82.60;;;;;;5011264;28;20064;-62
2023/03/15 11:53:33;;;;;;;7.32;3.05;;;6.80;82.60;;;;;;5012893;28;20042;-62
2023/03/15 11:56:22;;;;;;;6.32;2.90;;;6.90;82.80;;;;;;5005211;28;20045;-59
2023/03/15 11:59:10;;;;;;;6.18;2.83;;;7.00;82.20;;;;;;5016542;28;20472;-60
2023/03/15 12:01:47;;;;;;;7.80;3.78;;;7.00;81.90;;;;;;5024437;28;20132;-61
2023/03/15 12:04:42;;;;;;;6.05;3.20;;;6.90;82.00;;;;;;5011815;28;20235;-62
2023/03/15 12:07:37;;;;;;;6.30;2.58;;;6.90;81.70;;;;;;5006507;28;20449;-70
2023/03/15 12:10:45;;;;;;;4.93;2.40;;;6.80;81.70;;;;;;5012693;28;20060;-65
2023/03/15 12:13:26;;;;;;;4.95;2.47;;;6.70;81.30;;;;;;5000704;28;20546;-57
2023/03/15 12:16:01;;;;;;;4.50;2.40;;;6.70;81.00;;;;;;5017648;28;20077;-62
2023/03/15 12:18:44;;;;;;;4.88;2.40;;;6.80;81.30;;;;;;5017757;28;20044;-63
2023/03/15 12:21:23;;;;;;;6.38;2.45;;;6.90;81.30;;;;;;5011125;28;20045;-62
2023/03/15 12:24:00;;;;;;;5.97;2.83;;;6.90;80.90;;;;;;5015201;28;20042;-60
2023/03/15 12:26:59;;;;;;;5.45;2.60;;;6.80;80.40;;;;;;5016336;28;20042;-63
2023/03/15 12:29:35;;;;;;;5.07;2.25;;;6.70;79.60;;;;;;5015838;28;20052;-63
2023/03/15 12:32:14;;;;;;;3.67;1.80;;;6.70;79.20;;;;;;5016479;28;20516;-68
2023/03/15 12:34:50;;;;;;;3.63;1.95;;;6.70;79.20;;;;;;5017430;28;20046;-69
2023/03/15 12:37:39;;;;;;;5.55;2.28;;;6.70;79.50;;;;;;5018344;28;20046;-61
2023/03/15 12:40:40;;;;;;;5.07;2.30;;;6.70;79.30;;;;;;5017514;28;20125;-63
2023/03/15 12:43:13;;;;;;;8.15;2.33;;;6.70;79.90;;;;;;5034852;28;20077;-60
2023/03/15 12:45:45;;;;;;;4.50;2.13;;;6.60;80.20;;;;;;5034788;28;20099;-60
2023/03/15 12:48:27;;;;;;;5.13;2.30;;;6.50;80.10;;;;;;5013710;28;20065;-59
2023/03/15 12:51:08;;;;;;;5.05;2.33;;;6.40;80.60;;;;;;5014213;28;20049;-61
2023/03/15 12:53:46;;;;;;;7.20;2.72;;;6.40;81.10;;;;;;5007294;28;20056;-62
2023/03/15 12:56:49;;;;;;;5.75;2.63;;;6.20;80.90;;;;;;5014493;28;20052;-71
2023/03/15 12:59:30;;;;;;;5.53;2.08;;;6.20;81.50;;;;;;5011340;28;20046;-69
2023/03/15 13:02:18;;;;;;;4.45;1.70;;;5.90;81.30;;;;;;5012578;28;20041;-59
2023/03/15 13:05:17;;;;;;;2.42;1.30;;;5.80;81.80;;;;;;5011501;28;20054;-58
2023/03/15 13:08:03;;;;;;;3.20;1.27;;;5.70;82.30;;;;;;5016260;28;20481;-62
2023/03/15 13:10:40;;;;;;;4.38;1.50;;;6.00;81.40;;;;;;5034386;28;20044;-62
2023/03/15 13:13:25;;;;;;;4.03;1.67;;;6.10;82.10;;;;;;5016756;28;20060;-60
2023/03/15 13:16:08;;;;;;;2.63;1.20;;;6.10;81.50;;;;;;5030423;28;20049;-58
2023/03/15 13:18:52;;;;;;;2.55;1.25;;;6.10;81.80;;;;;;5033897;28;20053;-57
2023/03/15 13:21:31;;;;;;;2.80;1.25;;;6.10;81.90;;;;;;5025599;28;20418;-63
2023/03/15 13:24:13;;;;;;;2.28;1.10;;;6.10;81.90;;;;;;5027226;28;20492;-63
2023/03/15 13:26:55;;;;;;;2.47;1.00;;;6.00;81.60;;;;;;5029627;28;20048;-63
2023/03/15 13:29:31;;;;;;;3.35;1.30;;;6.00;82.00;;;;;;5010815;28;20658;-62
2023/03/15 13:32:13;;;;;;;2.92;1.23;;;6.00;82.10;;;;;;5007814;28;20159;-58
2023/03/15 13:34:47;;;;;;;2.58;1.20;;;6.00;82.30;;;;;;5008779;28;20042;-59
2023/03/15 13:37:30;;;;;;;3.22;1.30;;;6.00;82.40;;;;;;5007102;28;20045;-62
2023/03/15 13:40:12;;;;;;;3.53;1.30;;;6.00;82.60;;;;;;5008869;28;20196;-62
2023/03/15 13:42:45;;;;;;;2.60;1.00;;;6.00;82.40;;;;;;5011669;28;20128;-62
2023/03/15 13:45:19;;;;;;;2.58;1.23;;;6.00;82.40;;;;;;5002068;28;20503;-61
2023/03/15 13:47:52;;;;;;;3.03;1.23;;;6.10;82.40;;;;;;5009066;28;20564;-62
2023/03/15 13:50:26;;;;;;;3.35;1.30;;;6.10;82.50;;;;;;5008386;28;20493;-61
2023/03/15 13:53:02;;;;;;;2.88;1.08;;;6.00;82.70;;;;;;5008341;28;20524;-62
2023/03/15 13:55:36;;;;;;;3.90;1.30;;;6.00;82.80;;;;;;5011519;28;20057;-60